sensor_id;sensor_type;location;lat;lon;timestamp;temperature;humidity
45329;DHT22;72636;48.160;11.428;2024-03-02T00:00:11;7.10;99.90
45329;DHT22;72636;48.160;11.428;2024-03-02T00:05:08;7.00;99.90
45329;DHT22;72636;48.160;11.428;2024-03-02T00:07:36;7.00;99.90
45329;DHT22;72636;48.160;11.428;2024-03-02T00:10:08;7.00;99.90
45329;DHT22;72636;48.160;11.428;2024-03-02T00:12:36;7.00;99.90
45329;DHT22;72636;48.160;11.428;2024-03-02T00:15:04;7.00;99.90
45329;DHT22;72636;48.160;11.428;2024-03-02T00:17:30;6.90;99.90
45329;DHT22;72636;48.160;11.428;2024-03-02T00:19:56;6.90;99.90
45329;DHT22;72636;48.160;11.428;2024-03-02T00:22:22;6.90;99.90
45329;DHT22;72636;48.160;11.428;2024-03-02T00:24:47;6.90;99.90
45329;DHT22;72636;48.160;11.428;2024-03-02T00:27:15;6.90;99.90
45329;DHT22;72636;48.160;11.428;2024-03-02T00:29:43;6.90;99.90
45329;DHT22;72636;48.160;11.428;2024-03-02T00:32:13;6.90;99.90
45329;DHT22;72636;48.160;11.428;2024-03-02T00:34:41;6.80;99.90
45329;DHT22;72636;48.160;11.428;2024-03-02T00:37:07;6.80;99.90
45329;DHT22;72636;48.160;11.428;2024-03-02T00:39:33;6.80;99.90
45329;DHT22;72636;48.160;11.428;2024-03-02T00:41:59;6.80;99.90
45329;DHT22;72636;48.160;11.428;2024-03-02T00:44:25;6.80;99.90
45329;DHT22;72636;48.160;11.428;2024-03-02T00:46:59;6.70;99.90
45329;DHT22;72636;48.160;11.428;2024-03-02T00:49:26;6.70;99.90
45329;DHT22;72636;48.160;11.428;2024-03-02T00:51:53;6.70;99.90
45329;DHT22;72636;48.160;11.428;2024-03-02T00:54:25;6.70;99.90
45329;DHT22;72636;48.160;11.428;2024-03-02T00:56:52;6.70;99.90
45329;DHT22;72636;48.160;11.428;2024-03-02T00:59:24;6.80;99.90
45329;DHT22;72636;48.160;11.428;2024-03-02T01:01:50;6.70;99.90
45329;DHT22;72636;48.160;11.428;2024-03-02T01:04:16;6.70;99.90
45329;DHT22;72636;48.160;11.428;2024-03-02T01:06:43;6.70;99.90
45329;DHT22;72636;48.160;11.428;2024-03-02T01:09:09;6.70;99.90
45329;DHT22;72636;48.160;11.428;2024-03-02T01:11:34;6.80;99.90
45329;DHT22;72636;48.160;11.428;2024-03-02T01:14:00;6.70;99.90
45329;DHT22;72636;48.160;11.428;2024-03-02T01:16:26;6.70;99.90
45329;DHT22;72636;48.160;11.428;2024-03-02T01:18:51;6.70;99.90
45329;DHT22;72636;48.160;11.428;2024-03-02T01:21:17;6.70;99.90
45329;DHT22;72636;48.160;11.428;2024-03-02T01:23:43;6.70;99.90
45329;DHT22;72636;48.160;11.428;2024-03-02T01:26:09;6.70;99.90
45329;DHT22;72636;48.160;11.428;2024-03-02T01:28:34;6.70;99.90
45329;DHT22;72636;48.160;11.428;2024-03-02T01:31:00;6.70;99.90
45329;DHT22;72636;48.160;11.428;2024-03-02T01:33:27;6.70;99.90
45329;DHT22;72636;48.160;11.428;2024-03-02T01:35:53;6.70;99.90
45329;DHT22;72636;48.160;11.428;2024-03-02T01:38:18;6.70;99.90
45329;DHT22;72636;48.160;11.428;2024-03-02T01:40:45;6.70;99.90
45329;DHT22;72636;48.160;11.428;2024-03-02T01:43:10;6.70;99.90
45329;DHT22;72636;48.160;11.428;2024-03-02T01:45:36;6.70;99.90
45329;DHT22;72636;48.160;11.428;2024-03-02T01:48:06;6.70;99.90
45329;DHT22;72636;48.160;11.428;2024-03-02T01:50:33;6.70;99.90
45329;DHT22;72636;48.160;11.428;2024-03-02T01:52:59;6.70;99.90
45329;DHT22;72636;48.160;11.428;2024-03-02T01:55:25;6.70;99.90
45329;DHT22;72636;48.160;11.428;2024-03-02T01:57:51;6.70;99.90
45329;DHT22;72636;48.160;11.428;2024-03-02T02:00:20;6.70;99.90
45329;DHT22;72636;48.160;11.428;2024-03-02T02:02:47;6.70;99.90
45329;DHT22;72636;48.160;11.428;2024-03-02T02:05:13;6.70;99.90
45329;DHT22;72636;48.160;11.428;2024-03-02T02:07:40;6.70;99.90
45329;DHT22;72636;48.160;11.428;2024-03-02T02:10:07;6.70;99.90
45329;DHT22;72636;48.160;11.428;2024-03-02T02:12:33;6.70;99.90
45329;DHT22;72636;48.160;11.428;2024-03-02T02:14:59;6.70;99.90
45329;DHT22;72636;48.160;11.428;2024-03-02T02:17:24;6.70;99.90
45329;DHT22;72636;48.160;11.428;2024-03-02T02:19:50;6.70;99.90
45329;DHT22;72636;48.160;11.428;2024-03-02T02:22:16;6.70;99.90
45329;DHT22;72636;48.160;11.428;2024-03-02T02:24:42;6.70;99.90
45329;DHT22;72636;48.160;11.428;2024-03-02T02:27:08;6.70;99.90
45329;DHT22;72636;48.160;11.428;2024-03-02T02:29:34;6.70;99.90
45329;DHT22;72636;48.160;11.428;2024-03-02T02:32:00;6.70;99.90
45329;DHT22;72636;48.160;11.428;2024-03-02T02:34:26;6.70;99.90
45329;DHT22;72636;48.160;11.428;2024-03-02T02:36:51;6.70;99.90
45329;DHT22;72636;48.160;11.428;2024-03-02T02:39:20;6.70;99.90
45329;DHT22;72636;48.160;11.428;2024-03-02T02:41:46;6.70;99.90
45329;DHT22;72636;48.160;11.428;2024-03-02T02:44:12;6.70;99.90
45329;DHT22;72636;48.160;11.428;2024-03-02T02:46:39;6.70;99.90
45329;DHT22;72636;48.160;11.428;2024-03-02T02:49:04;6.70;99.90
45329;DHT22;72636;48.160;11.428;2024-03-02T02:51:30;6.70;99.90
45329;DHT22;72636;48.160;11.428;2024-03-02T02:53:56;6.70;99.90
45329;DHT22;72636;48.160;11.428;2024-03-02T02:56:22;6.70;99.90
45329;DHT22;72636;48.160;11.428;2024-03-02T02:58:47;6.70;99.90
45329;DHT22;72636;48.160;11.428;2024-03-02T03:01:15;6.60;99.90
45329;DHT22;72636;48.160;11.428;2024-03-02T03:03:43;6.70;99.90
45329;DHT22;72636;48.160;11.428;2024-03-02T03:06:09;6.70;99.90
45329;DHT22;72636;48.160;11.428;2024-03-02T03:08:35;6.70;99.90
45329;DHT22;72636;48.160;11.428;2024-03-02T03:11:01;6.70;99.90
45329;DHT22;72636;48.160;11.428;2024-03-02T03:13:26;6.70;99.90
45329;DHT22;72636;48.160;11.428;2024-03-02T03:15:52;6.60;99.90
45329;DHT22;72636;48.160;11.428;2024-03-02T03:18:18;6.60;99.90
45329;DHT22;72636;48.160;11.428;2024-03-02T03:20:44;6.60;99.90
45329;DHT22;72636;48.160;11.428;2024-03-02T03:23:09;6.60;99.90
45329;DHT22;72636;48.160;11.428;2024-03-02T03:25:40;6.60;99.90
45329;DHT22;72636;48.160;11.428;2024-03-02T03:28:06;6.60;99.90
45329;DHT22;72636;48.160;11.428;2024-03-02T03:30:32;6.60;99.90
45329;DHT22;72636;48.160;11.428;2024-03-02T03:32:58;6.50;99.90
45329;DHT22;72636;48.160;11.428;2024-03-02T03:35:23;6.60;99.90
45329;DHT22;72636;48.160;11.428;2024-03-02T03:37:49;6.60;99.90
45329;DHT22;72636;48.160;11.428;2024-03-02T03:40:14;6.60;99.90
45329;DHT22;72636;48.160;11.428;2024-03-02T03:42:40;6.60;99.90
45329;DHT22;72636;48.160;11.428;2024-03-02T03:45:06;6.60;99.90
45329;DHT22;72636;48.160;11.428;2024-03-02T03:47:32;6.60;99.90
45329;DHT22;72636;48.160;11.428;2024-03-02T03:49:58;6.60;99.90
45329;DHT22;72636;48.160;11.428;2024-03-02T03:52:24;6.70;99.90
45329;DHT22;72636;48.160;11.428;2024-03-02T03:54:50;6.70;99.90
45329;DHT22;72636;48.160;11.428;2024-03-02T03:57:16;6.70;99.90
45329;DHT22;72636;48.160;11.428;2024-03-02T03:59:42;6.70;99.90
45329;DHT22;72636;48.160;11.428;2024-03-02T04:02:08;6.70;99.90
45329;DHT22;72636;48.160;11.428;2024-03-02T04:04:34;6.70;99.90
45329;DHT22;72636;48.160;11.428;2024-03-02T04:07:00;6.70;99.90
45329;DHT22;72636;48.160;11.428;2024-03-02T04:09:26;6.70;99.90
45329;DHT22;72636;48.160;11.428;2024-03-02T04:11:51;6.70;99.90
45329;DHT22;72636;48.160;11.428;2024-03-02T04:14:17;6.70;99.90
45329;DHT22;72636;48.160;11.428;2024-03-02T04:16:43;6.80;99.90
45329;DHT22;72636;48.160;11.428;2024-03-02T04:19:08;6.70;99.90
45329;DHT22;72636;48.160;11.428;2024-03-02T04:21:34;6.80;99.90
45329;DHT22;72636;48.160;11.428;2024-03-02T04:24:00;6.70;99.90
45329;DHT22;72636;48.160;11.428;2024-03-02T04:26:26;6.80;99.90
45329;DHT22;72636;48.160;11.428;2024-03-02T04:28:52;6.80;99.90
45329;DHT22;72636;48.160;11.428;2024-03-02T04:31:18;6.80;99.90
45329;DHT22;72636;48.160;11.428;2024-03-02T04:33:43;6.80;99.90
45329;DHT22;72636;48.160;11.428;2024-03-02T04:36:09;6.70;99.90
45329;DHT22;72636;48.160;11.428;2024-03-02T04:38:35;6.70;99.90
45329;DHT22;72636;48.160;11.428;2024-03-02T04:41:01;6.70;99.90
45329;DHT22;72636;48.160;11.428;2024-03-02T04:43:27;6.70;99.90
45329;DHT22;72636;48.160;11.428;2024-03-02T04:45:52;6.70;99.90
45329;DHT22;72636;48.160;11.428;2024-03-02T04:48:18;6.70;99.90
45329;DHT22;72636;48.160;11.428;2024-03-02T04:50:44;6.70;99.90
45329;DHT22;72636;48.160;11.428;2024-03-02T04:53:10;6.80;99.90
45329;DHT22;72636;48.160;11.428;2024-03-02T04:55:36;6.80;99.90
45329;DHT22;72636;48.160;11.428;2024-03-02T04:58:04;6.70;99.90
45329;DHT22;72636;48.160;11.428;2024-03-02T05:00:30;6.70;99.90
45329;DHT22;72636;48.160;11.428;2024-03-02T05:02:56;6.70;99.90
45329;DHT22;72636;48.160;11.428;2024-03-02T05:05:22;6.70;99.90
45329;DHT22;72636;48.160;11.428;2024-03-02T05:07:47;6.70;99.90
45329;DHT22;72636;48.160;11.428;2024-03-02T05:10:13;6.70;99.90
45329;DHT22;72636;48.160;11.428;2024-03-02T05:12:39;6.70;99.90
45329;DHT22;72636;48.160;11.428;2024-03-02T05:15:12;6.70;99.90
45329;DHT22;72636;48.160;11.428;2024-03-02T05:17:41;6.70;99.90
45329;DHT22;72636;48.160;11.428;2024-03-02T05:20:10;6.70;99.90
45329;DHT22;72636;48.160;11.428;2024-03-02T05:22:37;6.70;99.90
45329;DHT22;72636;48.160;11.428;2024-03-02T05:25:02;6.70;99.90
45329;DHT22;72636;48.160;11.428;2024-03-02T05:27:28;6.70;99.90
45329;DHT22;72636;48.160;11.428;2024-03-02T05:29:54;6.70;99.90
45329;DHT22;72636;48.160;11.428;2024-03-02T05:32:20;6.70;99.90
45329;DHT22;72636;48.160;11.428;2024-03-02T05:34:45;6.70;99.90
45329;DHT22;72636;48.160;11.428;2024-03-02T05:37:11;6.70;99.90
45329;DHT22;72636;48.160;11.428;2024-03-02T05:39:37;6.70;99.90
45329;DHT22;72636;48.160;11.428;2024-03-02T05:42:03;6.70;99.90
45329;DHT22;72636;48.160;11.428;2024-03-02T05:44:29;6.70;99.90
45329;DHT22;72636;48.160;11.428;2024-03-02T05:46:55;6.70;99.90
45329;DHT22;72636;48.160;11.428;2024-03-02T05:49:20;6.70;99.90
45329;DHT22;72636;48.160;11.428;2024-03-02T05:51:46;6.60;99.90
45329;DHT22;72636;48.160;11.428;2024-03-02T05:54:12;6.60;99.90
45329;DHT22;72636;48.160;11.428;2024-03-02T05:56:37;6.70;99.90
45329;DHT22;72636;48.160;11.428;2024-03-02T05:59:03;6.60;99.90
45329;DHT22;72636;48.160;11.428;2024-03-02T06:01:46;6.60;99.90
45329;DHT22;72636;48.160;11.428;2024-03-02T06:04:17;6.60;99.90
45329;DHT22;72636;48.160;11.428;2024-03-02T06:06:42;6.60;99.90
45329;DHT22;72636;48.160;11.428;2024-03-02T06:09:08;6.70;99.90
45329;DHT22;72636;48.160;11.428;2024-03-02T06:11:35;6.60;99.90
45329;DHT22;72636;48.160;11.428;2024-03-02T06:14:01;6.60;99.90
45329;DHT22;72636;48.160;11.428;2024-03-02T06:16:26;6.60;99.90
45329;DHT22;72636;48.160;11.428;2024-03-02T06:18:52;6.60;99.90
45329;DHT22;72636;48.160;11.428;2024-03-02T06:21:19;6.60;99.90
45329;DHT22;72636;48.160;11.428;2024-03-02T06:23:45;6.60;99.90
45329;DHT22;72636;48.160;11.428;2024-03-02T06:26:11;6.60;99.90
45329;DHT22;72636;48.160;11.428;2024-03-02T06:28:36;6.60;99.90
45329;DHT22;72636;48.160;11.428;2024-03-02T06:31:02;6.60;99.90
45329;DHT22;72636;48.160;11.428;2024-03-02T06:33:28;6.60;99.90
45329;DHT22;72636;48.160;11.428;2024-03-02T06:35:54;6.60;99.90
45329;DHT22;72636;48.160;11.428;2024-03-02T06:38:19;6.60;99.90
45329;DHT22;72636;48.160;11.428;2024-03-02T06:40:45;6.50;99.90
45329;DHT22;72636;48.160;11.428;2024-03-02T06:43:11;6.50;99.90
45329;DHT22;72636;48.160;11.428;2024-03-02T06:45:37;6.50;99.90
45329;DHT22;72636;48.160;11.428;2024-03-02T06:48:02;6.50;99.90
45329;DHT22;72636;48.160;11.428;2024-03-02T06:50:28;6.50;99.90
45329;DHT22;72636;48.160;11.428;2024-03-02T06:52:54;6.50;99.90
45329;DHT22;72636;48.160;11.428;2024-03-02T06:55:21;6.50;99.90
45329;DHT22;72636;48.160;11.428;2024-03-02T06:57:47;6.50;99.90
45329;DHT22;72636;48.160;11.428;2024-03-02T07:00:13;6.50;99.90
45329;DHT22;72636;48.160;11.428;2024-03-02T07:02:39;6.50;99.90
45329;DHT22;72636;48.160;11.428;2024-03-02T07:05:07;6.50;99.90
45329;DHT22;72636;48.160;11.428;2024-03-02T07:07:33;6.40;99.90
45329;DHT22;72636;48.160;11.428;2024-03-02T07:10:00;6.40;99.90
45329;DHT22;72636;48.160;11.428;2024-03-02T07:12:26;6.40;99.90
45329;DHT22;72636;48.160;11.428;2024-03-02T07:14:52;6.40;99.90
45329;DHT22;72636;48.160;11.428;2024-03-02T07:17:30;6.40;99.90
45329;DHT22;72636;48.160;11.428;2024-03-02T07:19:56;6.50;99.90
45329;DHT22;72636;48.160;11.428;2024-03-02T07:22:23;6.50;99.90
45329;DHT22;72636;48.160;11.428;2024-03-02T07:24:49;6.50;99.90
45329;DHT22;72636;48.160;11.428;2024-03-02T07:27:15;6.50;99.90
45329;DHT22;72636;48.160;11.428;2024-03-02T07:29:41;6.60;99.90
45329;DHT22;72636;48.160;11.428;2024-03-02T07:32:08;6.70;99.90
45329;DHT22;72636;48.160;11.428;2024-03-02T07:34:33;6.80;99.90
45329;DHT22;72636;48.160;11.428;2024-03-02T07:36:59;6.90;99.90
45329;DHT22;72636;48.160;11.428;2024-03-02T07:39:25;7.00;99.90
45329;DHT22;72636;48.160;11.428;2024-03-02T07:41:51;7.10;99.90
45329;DHT22;72636;48.160;11.428;2024-03-02T07:44:17;7.20;99.90
45329;DHT22;72636;48.160;11.428;2024-03-02T07:46:45;7.30;99.90
45329;DHT22;72636;48.160;11.428;2024-03-02T07:49:12;7.50;99.90
45329;DHT22;72636;48.160;11.428;2024-03-02T07:51:39;7.60;99.90
45329;DHT22;72636;48.160;11.428;2024-03-02T07:54:05;7.70;99.90
45329;DHT22;72636;48.160;11.428;2024-03-02T07:56:30;7.80;99.90
45329;DHT22;72636;48.160;11.428;2024-03-02T07:58:56;7.80;99.90
45329;DHT22;72636;48.160;11.428;2024-03-02T08:01:27;7.80;99.90
45329;DHT22;72636;48.160;11.428;2024-03-02T08:03:53;7.90;99.90
45329;DHT22;72636;48.160;11.428;2024-03-02T08:06:18;7.90;99.90
45329;DHT22;72636;48.160;11.428;2024-03-02T08:08:47;8.00;99.90
45329;DHT22;72636;48.160;11.428;2024-03-02T08:11:12;8.10;99.90
45329;DHT22;72636;48.160;11.428;2024-03-02T08:13:38;8.20;99.90
45329;DHT22;72636;48.160;11.428;2024-03-02T08:16:04;8.20;99.90
45329;DHT22;72636;48.160;11.428;2024-03-02T08:18:33;8.30;99.90
45329;DHT22;72636;48.160;11.428;2024-03-02T08:20:58;8.40;99.90
45329;DHT22;72636;48.160;11.428;2024-03-02T08:23:24;8.40;99.90
45329;DHT22;72636;48.160;11.428;2024-03-02T08:25:50;8.50;99.90
45329;DHT22;72636;48.160;11.428;2024-03-02T08:28:15;8.60;99.90
45329;DHT22;72636;48.160;11.428;2024-03-02T08:30:41;8.70;99.90
45329;DHT22;72636;48.160;11.428;2024-03-02T08:33:07;8.80;99.90
45329;DHT22;72636;48.160;11.428;2024-03-02T08:35:32;8.90;99.90
45329;DHT22;72636;48.160;11.428;2024-03-02T08:38:02;9.00;99.90
45329;DHT22;72636;48.160;11.428;2024-03-02T08:40:28;9.10;99.90
45329;DHT22;72636;48.160;11.428;2024-03-02T08:42:54;9.20;99.90
45329;DHT22;72636;48.160;11.428;2024-03-02T08:45:20;9.20;99.90
45329;DHT22;72636;48.160;11.428;2024-03-02T08:47:46;9.40;99.90
45329;DHT22;72636;48.160;11.428;2024-03-02T08:50:12;9.50;99.90
45329;DHT22;72636;48.160;11.428;2024-03-02T08:52:38;9.60;99.90
45329;DHT22;72636;48.160;11.428;2024-03-02T08:55:04;9.80;99.90
45329;DHT22;72636;48.160;11.428;2024-03-02T08:57:30;9.90;99.90
45329;DHT22;72636;48.160;11.428;2024-03-02T08:59:56;10.00;99.90
45329;DHT22;72636;48.160;11.428;2024-03-02T09:02:22;10.10;99.90
45329;DHT22;72636;48.160;11.428;2024-03-02T09:04:49;10.30;99.90
45329;DHT22;72636;48.160;11.428;2024-03-02T09:07:15;10.50;99.90
45329;DHT22;72636;48.160;11.428;2024-03-02T09:09:40;10.60;99.90
45329;DHT22;72636;48.160;11.428;2024-03-02T09:12:07;10.70;99.90
45329;DHT22;72636;48.160;11.428;2024-03-02T09:14:33;10.80;99.90
45329;DHT22;72636;48.160;11.428;2024-03-02T09:16:59;10.90;99.90
45329;DHT22;72636;48.160;11.428;2024-03-02T09:19:24;11.00;99.90
45329;DHT22;72636;48.160;11.428;2024-03-02T09:21:50;11.20;99.90
45329;DHT22;72636;48.160;11.428;2024-03-02T09:24:16;11.40;99.90
45329;DHT22;72636;48.160;11.428;2024-03-02T09:26:41;11.70;99.90
45329;DHT22;72636;48.160;11.428;2024-03-02T09:29:07;12.10;99.90
45329;DHT22;72636;48.160;11.428;2024-03-02T09:31:33;12.50;99.90
45329;DHT22;72636;48.160;11.428;2024-03-02T09:33:58;12.90;99.90
45329;DHT22;72636;48.160;11.428;2024-03-02T09:36:24;13.40;99.90
45329;DHT22;72636;48.160;11.428;2024-03-02T09:38:49;13.80;99.90
45329;DHT22;72636;48.160;11.428;2024-03-02T09:41:16;14.30;99.90
45329;DHT22;72636;48.160;11.428;2024-03-02T09:43:41;14.70;99.90
45329;DHT22;72636;48.160;11.428;2024-03-02T09:46:10;15.00;99.90
45329;DHT22;72636;48.160;11.428;2024-03-02T09:48:37;15.20;99.90
45329;DHT22;72636;48.160;11.428;2024-03-02T09:51:04;15.30;99.90
45329;DHT22;72636;48.160;11.428;2024-03-02T09:53:32;15.40;99.90
45329;DHT22;72636;48.160;11.428;2024-03-02T09:55:59;15.50;99.90
45329;DHT22;72636;48.160;11.428;2024-03-02T09:58:25;15.60;99.90
45329;DHT22;72636;48.160;11.428;2024-03-02T10:00:51;15.60;99.90
45329;DHT22;72636;48.160;11.428;2024-03-02T10:03:19;15.70;99.90
45329;DHT22;72636;48.160;11.428;2024-03-02T10:05:45;15.70;99.90
45329;DHT22;72636;48.160;11.428;2024-03-02T10:08:10;15.70;99.90
45329;DHT22;72636;48.160;11.428;2024-03-02T10:10:40;15.60;99.90
45329;DHT22;72636;48.160;11.428;2024-03-02T10:13:08;15.50;99.90
45329;DHT22;72636;48.160;11.428;2024-03-02T10:15:33;15.50;99.90
45329;DHT22;72636;48.160;11.428;2024-03-02T10:17:59;15.70;99.90
45329;DHT22;72636;48.160;11.428;2024-03-02T10:20:25;15.80;99.90
45329;DHT22;72636;48.160;11.428;2024-03-02T10:22:51;15.90;99.90
45329;DHT22;72636;48.160;11.428;2024-03-02T10:25:33;16.20;99.90
45329;DHT22;72636;48.160;11.428;2024-03-02T10:27:59;16.40;99.90
45329;DHT22;72636;48.160;11.428;2024-03-02T10:30:26;16.70;99.90
45329;DHT22;72636;48.160;11.428;2024-03-02T10:32:55;17.00;99.90
45329;DHT22;72636;48.160;11.428;2024-03-02T10:35:24;17.40;99.90
45329;DHT22;72636;48.160;11.428;2024-03-02T10:37:52;17.40;99.90
45329;DHT22;72636;48.160;11.428;2024-03-02T10:40:21;17.80;99.90
45329;DHT22;72636;48.160;11.428;2024-03-02T10:42:47;18.20;99.90
45329;DHT22;72636;48.160;11.428;2024-03-02T10:45:15;18.60;99.90
45329;DHT22;72636;48.160;11.428;2024-03-02T10:47:43;18.90;99.90
45329;DHT22;72636;48.160;11.428;2024-03-02T10:50:09;19.30;99.90
45329;DHT22;72636;48.160;11.428;2024-03-02T10:52:36;19.60;95.90
45329;DHT22;72636;48.160;11.428;2024-03-02T10:55:02;19.90;96.20
45329;DHT22;72636;48.160;11.428;2024-03-02T10:57:36;20.30;92.50
45329;DHT22;72636;48.160;11.428;2024-03-02T11:00:06;20.60;90.70
45329;DHT22;72636;48.160;11.428;2024-03-02T11:02:35;20.90;80.90
45329;DHT22;72636;48.160;11.428;2024-03-02T11:05:06;21.10;78.10
45329;DHT22;72636;48.160;11.428;2024-03-02T11:07:33;21.40;86.90
45329;DHT22;72636;48.160;11.428;2024-03-02T11:10:01;21.40;74.60
45329;DHT22;72636;48.160;11.428;2024-03-02T11:12:38;21.50;74.90
45329;DHT22;72636;48.160;11.428;2024-03-02T11:15:11;21.90;70.20
45329;DHT22;72636;48.160;11.428;2024-03-02T11:17:39;22.10;65.70
45329;DHT22;72636;48.160;11.428;2024-03-02T11:20:07;22.20;65.70
45329;DHT22;72636;48.160;11.428;2024-03-02T11:22:35;22.30;58.30
45329;DHT22;72636;48.160;11.428;2024-03-02T11:25:01;22.20;54.50
45329;DHT22;72636;48.160;11.428;2024-03-02T11:32:57;22.70;58.50
45329;DHT22;72636;48.160;11.428;2024-03-02T11:35:27;23.00;51.40
45329;DHT22;72636;48.160;11.428;2024-03-02T11:37:54;23.30;50.50
45329;DHT22;72636;48.160;11.428;2024-03-02T11:40:24;23.80;50.20
45329;DHT22;72636;48.160;11.428;2024-03-02T11:42:50;24.30;52.30
45329;DHT22;72636;48.160;11.428;2024-03-02T11:45:28;24.50;43.30
45329;DHT22;72636;48.160;11.428;2024-03-02T11:47:55;24.40;42.10
45329;DHT22;72636;48.160;11.428;2024-03-02T11:50:33;24.60;42.10
45329;DHT22;72636;48.160;11.428;2024-03-02T11:53:00;25.00;40.10
45329;DHT22;72636;48.160;11.428;2024-03-02T11:55:26;25.20;38.30
45329;DHT22;72636;48.160;11.428;2024-03-02T11:57:55;25.00;36.60
45329;DHT22;72636;48.160;11.428;2024-03-02T12:00:21;24.70;33.50
45329;DHT22;72636;48.160;11.428;2024-03-02T12:03:03;24.20;39.10
45329;DHT22;72636;48.160;11.428;2024-03-02T12:05:30;24.10;36.90
45329;DHT22;72636;48.160;11.428;2024-03-02T12:07:57;23.90;39.80
45329;DHT22;72636;48.160;11.428;2024-03-02T12:10:23;23.80;41.20
45329;DHT22;72636;48.160;11.428;2024-03-02T12:13:01;24.40;42.80
45329;DHT22;72636;48.160;11.428;2024-03-02T12:15:29;25.00;40.20
45329;DHT22;72636;48.160;11.428;2024-03-02T12:17:59;25.70;39.00
45329;DHT22;72636;48.160;11.428;2024-03-02T12:20:26;26.50;34.60
45329;DHT22;72636;48.160;11.428;2024-03-02T12:22:53;27.30;35.20
45329;DHT22;72636;48.160;11.428;2024-03-02T12:25:20;28.00;31.20
45329;DHT22;72636;48.160;11.428;2024-03-02T12:27:49;28.50;29.10
45329;DHT22;72636;48.160;11.428;2024-03-02T12:30:16;28.70;26.90
45329;DHT22;72636;48.160;11.428;2024-03-02T12:32:42;29.20;26.40
45329;DHT22;72636;48.160;11.428;2024-03-02T12:35:07;29.80;24.70
45329;DHT22;72636;48.160;11.428;2024-03-02T12:37:42;30.10;24.90
45329;DHT22;72636;48.160;11.428;2024-03-02T12:40:10;30.30;24.10
45329;DHT22;72636;48.160;11.428;2024-03-02T12:42:37;30.40;24.50
45329;DHT22;72636;48.160;11.428;2024-03-02T12:45:02;30.90;23.50
45329;DHT22;72636;48.160;11.428;2024-03-02T12:47:29;31.40;22.00
45329;DHT22;72636;48.160;11.428;2024-03-02T12:49:55;31.60;21.80
45329;DHT22;72636;48.160;11.428;2024-03-02T12:52:21;31.90;20.40
45329;DHT22;72636;48.160;11.428;2024-03-02T12:54:47;32.00;20.10
45329;DHT22;72636;48.160;11.428;2024-03-02T12:57:19;32.10;20.30
45329;DHT22;72636;48.160;11.428;2024-03-02T12:59:46;32.40;18.50
45329;DHT22;72636;48.160;11.428;2024-03-02T13:02:18;32.70;19.30
45329;DHT22;72636;48.160;11.428;2024-03-02T13:04:44;33.00;18.10
45329;DHT22;72636;48.160;11.428;2024-03-02T13:07:10;33.10;18.20
45329;DHT22;72636;48.160;11.428;2024-03-02T13:09:39;33.50;18.00
45329;DHT22;72636;48.160;11.428;2024-03-02T13:12:05;33.90;17.40
45329;DHT22;72636;48.160;11.428;2024-03-02T13:14:34;34.10;16.70
45329;DHT22;72636;48.160;11.428;2024-03-02T13:17:01;34.00;16.80
45329;DHT22;72636;48.160;11.428;2024-03-02T13:19:28;34.00;15.80
45329;DHT22;72636;48.160;11.428;2024-03-02T13:21:56;34.20;17.10
45329;DHT22;72636;48.160;11.428;2024-03-02T13:24:22;34.00;16.30
45329;DHT22;72636;48.160;11.428;2024-03-02T13:26:51;34.10;15.60
45329;DHT22;72636;48.160;11.428;2024-03-02T13:29:21;33.90;16.00
45329;DHT22;72636;48.160;11.428;2024-03-02T13:31:47;33.90;16.60
45329;DHT22;72636;48.160;11.428;2024-03-02T13:34:12;33.80;15.40
45329;DHT22;72636;48.160;11.428;2024-03-02T13:36:38;33.80;15.60
45329;DHT22;72636;48.160;11.428;2024-03-02T13:39:04;33.40;16.10
45329;DHT22;72636;48.160;11.428;2024-03-02T13:41:35;33.10;16.00
45329;DHT22;72636;48.160;11.428;2024-03-02T13:44:01;32.70;16.20
45329;DHT22;72636;48.160;11.428;2024-03-02T13:46:27;32.60;15.80
45329;DHT22;72636;48.160;11.428;2024-03-02T13:48:54;32.10;16.90
45329;DHT22;72636;48.160;11.428;2024-03-02T13:51:20;32.00;17.40
45329;DHT22;72636;48.160;11.428;2024-03-02T13:53:45;31.90;17.60
45329;DHT22;72636;48.160;11.428;2024-03-02T13:56:11;31.70;16.60
45329;DHT22;72636;48.160;11.428;2024-03-02T13:58:37;31.50;16.50
45329;DHT22;72636;48.160;11.428;2024-03-02T14:01:04;31.20;17.70
45329;DHT22;72636;48.160;11.428;2024-03-02T14:03:31;31.10;17.60
45329;DHT22;72636;48.160;11.428;2024-03-02T14:05:57;30.70;17.10
45329;DHT22;72636;48.160;11.428;2024-03-02T14:08:23;30.30;17.60
45329;DHT22;72636;48.160;11.428;2024-03-02T14:10:49;29.90;18.00
45329;DHT22;72636;48.160;11.428;2024-03-02T14:13:15;29.60;18.70
45329;DHT22;72636;48.160;11.428;2024-03-02T14:15:41;29.60;18.60
45329;DHT22;72636;48.160;11.428;2024-03-02T14:18:07;29.40;18.60
45329;DHT22;72636;48.160;11.428;2024-03-02T14:20:35;29.20;19.70
45329;DHT22;72636;48.160;11.428;2024-03-02T14:23:01;29.00;18.30
45329;DHT22;72636;48.160;11.428;2024-03-02T14:25:28;28.70;20.20
45329;DHT22;72636;48.160;11.428;2024-03-02T14:27:57;28.30;20.50
45329;DHT22;72636;48.160;11.428;2024-03-02T14:30:23;28.10;20.70
45329;DHT22;72636;48.160;11.428;2024-03-02T14:32:49;28.00;21.30
45329;DHT22;72636;48.160;11.428;2024-03-02T14:35:14;28.10;21.30
45329;DHT22;72636;48.160;11.428;2024-03-02T14:37:40;27.90;21.00
45329;DHT22;72636;48.160;11.428;2024-03-02T14:40:06;27.50;21.00
45329;DHT22;72636;48.160;11.428;2024-03-02T14:42:35;27.00;21.60
45329;DHT22;72636;48.160;11.428;2024-03-02T14:45:00;26.30;22.80
45329;DHT22;72636;48.160;11.428;2024-03-02T14:47:28;25.70;23.80
45329;DHT22;72636;48.160;11.428;2024-03-02T14:49:53;25.00;24.70
45329;DHT22;72636;48.160;11.428;2024-03-02T14:52:19;24.30;25.20
45329;DHT22;72636;48.160;11.428;2024-03-02T14:54:45;23.70;27.00
45329;DHT22;72636;48.160;11.428;2024-03-02T14:57:12;23.10;27.70
45329;DHT22;72636;48.160;11.428;2024-03-02T14:59:37;22.60;31.50
45329;DHT22;72636;48.160;11.428;2024-03-02T15:02:03;22.20;31.50
45329;DHT22;72636;48.160;11.428;2024-03-02T15:04:29;21.90;34.50
45329;DHT22;72636;48.160;11.428;2024-03-02T15:06:55;21.70;35.40
45329;DHT22;72636;48.160;11.428;2024-03-02T15:09:20;21.60;35.20
45329;DHT22;72636;48.160;11.428;2024-03-02T15:11:46;21.50;37.10
45329;DHT22;72636;48.160;11.428;2024-03-02T15:14:12;21.40;35.30
45329;DHT22;72636;48.160;11.428;2024-03-02T15:16:38;21.20;36.20
45329;DHT22;72636;48.160;11.428;2024-03-02T15:19:04;21.00;36.70
45329;DHT22;72636;48.160;11.428;2024-03-02T15:21:30;20.80;37.80
45329;DHT22;72636;48.160;11.428;2024-03-02T15:23:55;20.60;39.60
45329;DHT22;72636;48.160;11.428;2024-03-02T15:26:21;20.40;41.20
45329;DHT22;72636;48.160;11.428;2024-03-02T15:28:47;20.20;41.80